sensor_id;sensor_type;location;lat;lon;timestamp;temperature;humidity
40454;DHT22;26160;51.858;4.398;2023-03-14T00:05:16;11.40;99.90
40454;DHT22;26160;51.858;4.398;2023-03-14T00:07:57;11.30;99.90
40454;DHT22;26160;51.858;4.398;2023-03-14T00:13:09;11.10;99.90
40454;DHT22;26160;51.858;4.398;2023-03-14T00:18:31;10.90;99.90
40454;DHT22;26160;51.858;4.398;2023-03-14T00:21:01;10.90;99.90
40454;DHT22;26160;51.858;4.398;2023-03-14T00:23:40;10.90;99.90
40454;DHT22;26160;51.858;4.398;2023-03-14T00:26:19;10.90;99.90
40454;DHT22;26160;51.858;4.398;2023-03-14T00:28:52;10.90;99.90
40454;DHT22;26160;51.858;4.398;2023-03-14T00:34:14;10.90;99.90
40454;DHT22;26160;51.858;4.398;2023-03-14T00:36:49;10.90;99.90
40454;DHT22;26160;51.858;4.398;2023-03-14T00:42:43;10.70;99.90
40454;DHT22;26160;51.858;4.398;2023-03-14T00:45:23;10.70;99.90
40454;DHT22;26160;51.858;4.398;2023-03-14T00:48:00;10.60;99.90
40454;DHT22;26160;51.858;4.398;2023-03-14T00:50:27;10.60;99.90
40454;DHT22;26160;51.858;4.398;2023-03-14T00:53:16;10.60;99.90
40454;DHT22;26160;51.858;4.398;2023-03-14T00:56:01;10.60;99.90
40454;DHT22;26160;51.858;4.398;2023-03-14T00:58:44;10.60;99.90
40454;DHT22;26160;51.858;4.398;2023-03-14T01:01:15;10.60;99.90
40454;DHT22;26160;51.858;4.398;2023-03-14T01:03:54;10.60;99.90
40454;DHT22;26160;51.858;4.398;2023-03-14T01:06:25;10.60;99.90
40454;DHT22;26160;51.858;4.398;2023-03-14T01:08:52;10.60;99.90
40454;DHT22;26160;51.858;4.398;2023-03-14T01:11:27;10.60;99.90
40454;DHT22;26160;51.858;4.398;2023-03-14T01:14:05;10.60;99.90
40454;DHT22;26160;51.858;4.398;2023-03-14T01:16:35;10.60;99.90
40454;DHT22;26160;51.858;4.398;2023-03-14T01:19:02;10.50;99.90
40454;DHT22;26160;51.858;4.398;2023-03-14T01:21:33;10.60;99.90
40454;DHT22;26160;51.858;4.398;2023-03-14T01:24:04;10.60;99.90
40454;DHT22;26160;51.858;4.398;2023-03-14T01:26:43;10.60;99.90
40454;DHT22;26160;51.858;4.398;2023-03-14T01:29:16;10.60;99.90
40454;DHT22;26160;51.858;4.398;2023-03-14T01:31:42;10.70;99.90
40454;DHT22;26160;51.858;4.398;2023-03-14T01:34:08;10.70;99.90
40454;DHT22;26160;51.858;4.398;2023-03-14T01:36:34;10.70;99.90
40454;DHT22;26160;51.858;4.398;2023-03-14T01:39:01;10.70;99.90
40454;DHT22;26160;51.858;4.398;2023-03-14T01:41:29;10.70;99.90
40454;DHT22;26160;51.858;4.398;2023-03-14T01:44:13;10.60;99.90
40454;DHT22;26160;51.858;4.398;2023-03-14T01:46:44;10.60;99.90
40454;DHT22;26160;51.858;4.398;2023-03-14T01:52:06;10.50;99.90
40454;DHT22;26160;51.858;4.398;2023-03-14T01:54:39;10.50;99.90
40454;DHT22;26160;51.858;4.398;2023-03-14T01:59:52;10.40;99.90
40454;DHT22;26160;51.858;4.398;2023-03-14T02:02:20;10.40;99.90
40454;DHT22;26160;51.858;4.398;2023-03-14T02:04:46;10.40;99.90
40454;DHT22;26160;51.858;4.398;2023-03-14T02:07:23;10.40;99.90
40454;DHT22;26160;51.858;4.398;2023-03-14T02:09:51;10.30;99.90
40454;DHT22;26160;51.858;4.398;2023-03-14T02:12:18;10.30;99.90
40454;DHT22;26160;51.858;4.398;2023-03-14T02:14:46;10.40;99.90
40454;DHT22;26160;51.858;4.398;2023-03-14T02:17:16;10.40;99.90
40454;DHT22;26160;51.858;4.398;2023-03-14T02:22:31;10.40;99.90
40454;DHT22;26160;51.858;4.398;2023-03-14T02:25:06;10.40;99.90
40454;DHT22;26160;51.858;4.398;2023-03-14T02:27:34;10.50;99.90
40454;DHT22;26160;51.858;4.398;2023-03-14T02:30:08;10.40;99.90
40454;DHT22;26160;51.858;4.398;2023-03-14T02:32:43;10.40;99.90
40454;DHT22;26160;51.858;4.398;2023-03-14T02:35:12;10.50;99.90
40454;DHT22;26160;51.858;4.398;2023-03-14T02:40:57;10.40;99.90
40454;DHT22;26160;51.858;4.398;2023-03-14T02:43:25;10.40;99.90
40454;DHT22;26160;51.858;4.398;2023-03-14T02:45:52;10.30;99.90
40454;DHT22;26160;51.858;4.398;2023-03-14T02:48:28;10.30;99.90
40454;DHT22;26160;51.858;4.398;2023-03-14T02:50:57;10.30;99.90
40454;DHT22;26160;51.858;4.398;2023-03-14T02:53:32;10.30;99.90
40454;DHT22;26160;51.858;4.398;2023-03-14T02:56:01;10.30;99.90
40454;DHT22;26160;51.858;4.398;2023-03-14T02:58:33;10.30;99.90
40454;DHT22;26160;51.858;4.398;2023-03-14T03:01:15;10.30;99.90
40454;DHT22;26160;51.858;4.398;2023-03-14T03:03:41;10.30;99.90
40454;DHT22;26160;51.858;4.398;2023-03-14T03:06:07;10.40;99.90
40454;DHT22;26160;51.858;4.398;2023-03-14T03:08:34;10.40;99.90
40454;DHT22;26160;51.858;4.398;2023-03-14T03:11:01;10.30;99.90
40454;DHT22;26160;51.858;4.398;2023-03-14T03:13:27;10.30;99.90
40454;DHT22;26160;51.858;4.398;2023-03-14T03:16:14;10.40;99.90
40454;DHT22;26160;51.858;4.398;2023-03-14T03:18:46;10.40;99.90
40454;DHT22;26160;51.858;4.398;2023-03-14T03:21:17;10.40;99.90
40454;DHT22;26160;51.858;4.398;2023-03-14T03:23:45;10.40;99.90
40454;DHT22;26160;51.858;4.398;2023-03-14T03:26:13;10.40;99.90
40454;DHT22;26160;51.858;4.398;2023-03-14T03:28:45;10.40;99.90
40454;DHT22;26160;51.858;4.398;2023-03-14T03:31:13;10.40;99.90
40454;DHT22;26160;51.858;4.398;2023-03-14T03:33:39;10.40;99.90
40454;DHT22;26160;51.858;4.398;2023-03-14T03:36:05;10.50;99.90
40454;DHT22;26160;51.858;4.398;2023-03-14T03:38:32;10.50;99.90
40454;DHT22;26160;51.858;4.398;2023-03-14T03:40:58;10.50;99.90
40454;DHT22;26160;51.858;4.398;2023-03-14T03:43:24;10.50;99.90
40454;DHT22;26160;51.858;4.398;2023-03-14T03:45:56;10.50;99.90
40454;DHT22;26160;51.858;4.398;2023-03-14T03:48:24;10.40;99.90
40454;DHT22;26160;51.858;4.398;2023-03-14T03:50:50;10.40;99.90
40454;DHT22;26160;51.858;4.398;2023-03-14T03:53:19;10.40;99.90
40454;DHT22;26160;51.858;4.398;2023-03-14T03:55:46;10.40;99.90
40454;DHT22;26160;51.858;4.398;2023-03-14T03:58:12;10.50;99.90
40454;DHT22;26160;51.858;4.398;2023-03-14T04:00:38;10.50;99.90
40454;DHT22;26160;51.858;4.398;2023-03-14T04:03:06;10.50;99.90
40454;DHT22;26160;51.858;4.398;2023-03-14T04:05:32;10.50;99.90
40454;DHT22;26160;51.858;4.398;2023-03-14T04:08:02;10.50;99.90
40454;DHT22;26160;51.858;4.398;2023-03-14T04:10:33;10.40;99.90
40454;DHT22;26160;51.858;4.398;2023-03-14T04:12:59;10.30;99.90
40454;DHT22;26160;51.858;4.398;2023-03-14T04:15:25;10.30;99.90
40454;DHT22;26160;51.858;4.398;2023-03-14T04:17:56;10.20;99.90
40454;DHT22;26160;51.858;4.398;2023-03-14T04:20:22;10.20;99.90
40454;DHT22;26160;51.858;4.398;2023-03-14T04:22:48;10.20;99.90
40454;DHT22;26160;51.858;4.398;2023-03-14T04:25:14;10.10;99.90
40454;DHT22;26160;51.858;4.398;2023-03-14T04:27:43;10.00;99.90
40454;DHT22;26160;51.858;4.398;2023-03-14T04:30:09;9.90;99.90
40454;DHT22;26160;51.858;4.398;2023-03-14T04:32:38;9.90;99.90
40454;DHT22;26160;51.858;4.398;2023-03-14T04:35:05;9.90;99.90
40454;DHT22;26160;51.858;4.398;2023-03-14T04:37:31;9.90;99.90
40454;DHT22;26160;51.858;4.398;2023-03-14T04:39:57;9.90;99.90
40454;DHT22;26160;51.858;4.398;2023-03-14T04:42:23;10.00;99.90
40454;DHT22;26160;51.858;4.398;2023-03-14T04:44:49;9.90;99.90
40454;DHT22;26160;51.858;4.398;2023-03-14T04:47:16;9.90;99.90
40454;DHT22;26160;51.858;4.398;2023-03-14T04:49:42;9.90;99.90
40454;DHT22;26160;51.858;4.398;2023-03-14T04:52:08;9.90;99.90
40454;DHT22;26160;51.858;4.398;2023-03-14T04:54:34;9.90;99.90
40454;DHT22;26160;51.858;4.398;2023-03-14T04:57:00;9.90;99.90
40454;DHT22;26160;51.858;4.398;2023-03-14T04:59:26;9.90;99.90
40454;DHT22;26160;51.858;4.398;2023-03-14T05:01:52;9.80;99.90
40454;DHT22;26160;51.858;4.398;2023-03-14T05:04:19;9.80;99.90
40454;DHT22;26160;51.858;4.398;2023-03-14T05:06:45;9.80;99.90
40454;DHT22;26160;51.858;4.398;2023-03-14T05:09:11;9.80;99.90
40454;DHT22;26160;51.858;4.398;2023-03-14T05:11:37;9.80;99.90
40454;DHT22;26160;51.858;4.398;2023-03-14T05:14:03;9.80;99.90
40454;DHT22;26160;51.858;4.398;2023-03-14T05:16:29;9.70;99.90
40454;DHT22;26160;51.858;4.398;2023-03-14T05:18:56;9.70;99.90
40454;DHT22;26160;51.858;4.398;2023-03-14T05:21:22;9.60;99.90
40454;DHT22;26160;51.858;4.398;2023-03-14T05:23:48;9.60;99.90
40454;DHT22;26160;51.858;4.398;2023-03-14T05:26:14;9.60;99.90
40454;DHT22;26160;51.858;4.398;2023-03-14T05:28:42;9.60;99.90
40454;DHT22;26160;51.858;4.398;2023-03-14T05:31:09;9.60;99.90
40454;DHT22;26160;51.858;4.398;2023-03-14T05:33:36;9.60;99.90
40454;DHT22;26160;51.858;4.398;2023-03-14T05:36:02;9.60;99.90
40454;DHT22;26160;51.858;4.398;2023-03-14T05:38:28;9.60;99.90
40454;DHT22;26160;51.858;4.398;2023-03-14T05:40:54;9.50;99.90
40454;DHT22;26160;51.858;4.398;2023-03-14T05:43:20;9.10;99.90
40454;DHT22;26160;51.858;4.398;2023-03-14T05:45:46;8.90;99.90
40454;DHT22;26160;51.858;4.398;2023-03-14T05:48:12;8.80;99.90
40454;DHT22;26160;51.858;4.398;2023-03-14T05:50:39;8.60;99.90
40454;DHT22;26160;51.858;4.398;2023-03-14T05:53:05;8.40;99.90
40454;DHT22;26160;51.858;4.398;2023-03-14T05:55:31;8.40;99.90
40454;DHT22;26160;51.858;4.398;2023-03-14T05:57:57;8.30;99.90
40454;DHT22;26160;51.858;4.398;2023-03-14T06:00:23;8.30;99.90
40454;DHT22;26160;51.858;4.398;2023-03-14T06:02:49;8.20;99.90
40454;DHT22;26160;51.858;4.398;2023-03-14T06:05:15;8.20;99.90
40454;DHT22;26160;51.858;4.398;2023-03-14T06:07:41;8.20;99.90
40454;DHT22;26160;51.858;4.398;2023-03-14T06:10:08;8.10;99.90
40454;DHT22;26160;51.858;4.398;2023-03-14T06:12:34;8.10;99.90
40454;DHT22;26160;51.858;4.398;2023-03-14T06:15:00;8.10;99.90
40454;DHT22;26160;51.858;4.398;2023-03-14T06:17:26;8.10;99.90
40454;DHT22;26160;51.858;4.398;2023-03-14T06:19:52;8.10;99.90
40454;DHT22;26160;51.858;4.398;2023-03-14T06:22:18;8.10;99.90
40454;DHT22;26160;51.858;4.398;2023-03-14T06:24:45;8.00;99.90
40454;DHT22;26160;51.858;4.398;2023-03-14T06:27:11;8.00;99.90
40454;DHT22;26160;51.858;4.398;2023-03-14T06:29:37;7.90;99.90
40454;DHT22;26160;51.858;4.398;2023-03-14T06:32:03;7.90;99.90
40454;DHT22;26160;51.858;4.398;2023-03-14T06:34:31;7.90;99.90
40454;DHT22;26160;51.858;4.398;2023-03-14T06:36:57;7.80;99.90
40454;DHT22;26160;51.858;4.398;2023-03-14T06:39:23;7.80;99.90
40454;DHT22;26160;51.858;4.398;2023-03-14T06:41:49;7.70;99.90
40454;DHT22;26160;51.858;4.398;2023-03-14T06:44:15;7.70;99.90
40454;DHT22;26160;51.858;4.398;2023-03-14T06:46:41;7.70;99.90
40454;DHT22;26160;51.858;4.398;2023-03-14T06:49:07;7.70;99.90
40454;DHT22;26160;51.858;4.398;2023-03-14T06:51:36;7.60;99.90
40454;DHT22;26160;51.858;4.398;2023-03-14T06:54:02;7.70;99.90
40454;DHT22;26160;51.858;4.398;2023-03-14T06:56:28;7.60;99.90
40454;DHT22;26160;51.858;4.398;2023-03-14T06:58:54;7.60;99.90
40454;DHT22;26160;51.858;4.398;2023-03-14T07:01:23;7.60;99.90
40454;DHT22;26160;51.858;4.398;2023-03-14T07:03:50;7.70;99.90
40454;DHT22;26160;51.858;4.398;2023-03-14T07:06:16;7.60;99.90
40454;DHT22;26160;51.858;4.398;2023-03-14T07:08:45;7.70;99.90
40454;DHT22;26160;51.858;4.398;2023-03-14T07:11:11;7.50;99.90
40454;DHT22;26160;51.858;4.398;2023-03-14T07:13:39;7.50;99.90
40454;DHT22;26160;51.858;4.398;2023-03-14T07:16:05;7.50;99.90
40454;DHT22;26160;51.858;4.398;2023-03-14T07:18:35;7.50;99.90
40454;DHT22;26160;51.858;4.398;2023-03-14T07:21:03;7.50;99.90
40454;DHT22;26160;51.858;4.398;2023-03-14T07:23:29;7.50;99.90
40454;DHT22;26160;51.858;4.398;2023-03-14T07:25:56;7.50;99.90
40454;DHT22;26160;51.858;4.398;2023-03-14T07:28:22;7.50;99.90
40454;DHT22;26160;51.858;4.398;2023-03-14T07:30:49;7.50;99.90
40454;DHT22;26160;51.858;4.398;2023-03-14T07:33:16;7.50;99.90
40454;DHT22;26160;51.858;4.398;2023-03-14T07:35:42;7.50;99.90
40454;DHT22;26160;51.858;4.398;2023-03-14T07:38:08;7.50;99.90
40454;DHT22;26160;51.858;4.398;2023-03-14T07:40:34;7.50;99.90
40454;DHT22;26160;51.858;4.398;2023-03-14T07:43:00;7.60;99.90
40454;DHT22;26160;51.858;4.398;2023-03-14T07:45:26;7.60;99.90
40454;DHT22;26160;51.858;4.398;2023-03-14T07:47:52;7.70;99.90
40454;DHT22;26160;51.858;4.398;2023-03-14T07:50:20;7.60;99.90
40454;DHT22;26160;51.858;4.398;2023-03-14T07:52:46;7.60;99.90
40454;DHT22;26160;51.858;4.398;2023-03-14T07:55:12;7.60;99.90
40454;DHT22;26160;51.858;4.398;2023-03-14T07:57:39;7.70;99.90
40454;DHT22;26160;51.858;4.398;2023-03-14T08:00:06;7.60;99.90
40454;DHT22;26160;51.858;4.398;2023-03-14T08:02:32;7.60;99.90
40454;DHT22;26160;51.858;4.398;2023-03-14T08:04:59;7.60;99.90
40454;DHT22;26160;51.858;4.398;2023-03-14T08:07:25;7.60;99.90
40454;DHT22;26160;51.858;4.398;2023-03-14T08:09:51;7.60;99.90
40454;DHT22;26160;51.858;4.398;2023-03-14T08:12:17;7.60;99.90
40454;DHT22;26160;51.858;4.398;2023-03-14T08:14:43;7.50;99.90
40454;DHT22;26160;51.858;4.398;2023-03-14T08:17:09;7.60;99.90
40454;DHT22;26160;51.858;4.398;2023-03-14T08:19:35;7.40;99.90
40454;DHT22;26160;51.858;4.398;2023-03-14T08:22:01;7.20;99.90
40454;DHT22;26160;51.858;4.398;2023-03-14T08:24:27;7.20;99.90
40454;DHT22;26160;51.858;4.398;2023-03-14T08:26:53;7.10;99.90
40454;DHT22;26160;51.858;4.398;2023-03-14T08:29:19;7.10;99.90
40454;DHT22;26160;51.858;4.398;2023-03-14T08:31:46;6.80;99.90
40454;DHT22;26160;51.858;4.398;2023-03-14T08:34:12;6.70;99.90
40454;DHT22;26160;51.858;4.398;2023-03-14T08:36:38;6.60;99.90
40454;DHT22;26160;51.858;4.398;2023-03-14T08:39:04;6.60;99.90
40454;DHT22;26160;51.858;4.398;2023-03-14T08:41:34;6.70;99.90
40454;DHT22;26160;51.858;4.398;2023-03-14T08:44:09;6.80;99.90
40454;DHT22;26160;51.858;4.398;2023-03-14T08:46:35;6.80;99.90
40454;DHT22;26160;51.858;4.398;2023-03-14T08:49:01;6.80;99.90
40454;DHT22;26160;51.858;4.398;2023-03-14T08:51:28;6.80;99.90
40454;DHT22;26160;51.858;4.398;2023-03-14T08:53:54;6.90;99.90
40454;DHT22;26160;51.858;4.398;2023-03-14T08:56:20;6.80;99.90
40454;DHT22;26160;51.858;4.398;2023-03-14T08:58:47;6.70;99.90
40454;DHT22;26160;51.858;4.398;2023-03-14T09:01:13;6.60;99.90
40454;DHT22;26160;51.858;4.398;2023-03-14T09:03:39;6.70;99.90
40454;DHT22;26160;51.858;4.398;2023-03-14T09:06:07;7.00;99.90
40454;DHT22;26160;51.858;4.398;2023-03-14T09:08:34;6.90;99.90
40454;DHT22;26160;51.858;4.398;2023-03-14T09:11:00;6.80;99.90
40454;DHT22;26160;51.858;4.398;2023-03-14T09:13:26;6.70;99.90
40454;DHT22;26160;51.858;4.398;2023-03-14T09:15:56;6.90;99.90
40454;DHT22;26160;51.858;4.398;2023-03-14T09:18:22;7.10;99.90
40454;DHT22;26160;51.858;4.398;2023-03-14T09:20:49;7.20;99.90
40454;DHT22;26160;51.858;4.398;2023-03-14T09:23:16;7.30;99.90
40454;DHT22;26160;51.858;4.398;2023-03-14T09:25:42;7.30;99.90
40454;DHT22;26160;51.858;4.398;2023-03-14T09:28:08;7.40;99.90
40454;DHT22;26160;51.858;4.398;2023-03-14T09:30:34;7.60;99.90
40454;DHT22;26160;51.858;4.398;2023-03-14T09:33:00;7.80;99.90
40454;DHT22;26160;51.858;4.398;2023-03-14T09:35:26;8.10;99.90
40454;DHT22;26160;51.858;4.398;2023-03-14T09:37:52;8.30;99.90
40454;DHT22;26160;51.858;4.398;2023-03-14T09:40:19;8.30;99.90
40454;DHT22;26160;51.858;4.398;2023-03-14T09:42:48;8.40;99.90
40454;DHT22;26160;51.858;4.398;2023-03-14T09:45:26;8.30;99.90
40454;DHT22;26160;51.858;4.398;2023-03-14T09:47:54;8.20;99.90
40454;DHT22;26160;51.858;4.398;2023-03-14T09:50:21;8.00;99.90
40454;DHT22;26160;51.858;4.398;2023-03-14T09:52:55;7.60;99.90
40454;DHT22;26160;51.858;4.398;2023-03-14T09:55:22;7.30;99.90
40454;DHT22;26160;51.858;4.398;2023-03-14T09:57:52;7.10;99.90
40454;DHT22;26160;51.858;4.398;2023-03-14T10:00:23;6.80;99.90
40454;DHT22;26160;51.858;4.398;2023-03-14T10:02:54;6.80;99.90
40454;DHT22;26160;51.858;4.398;2023-03-14T10:05:23;6.60;99.90
40454;DHT22;26160;51.858;4.398;2023-03-14T10:07:50;6.70;99.90
40454;DHT22;26160;51.858;4.398;2023-03-14T10:10:20;6.80;99.90
40454;DHT22;26160;51.858;4.398;2023-03-14T10:12:55;6.90;99.90
40454;DHT22;26160;51.858;4.398;2023-03-14T10:15:26;7.10;99.90
40454;DHT22;26160;51.858;4.398;2023-03-14T10:17:53;7.40;99.90
40454;DHT22;26160;51.858;4.398;2023-03-14T10:20:38;7.70;99.90
40454;DHT22;26160;51.858;4.398;2023-03-14T10:25:35;7.70;99.90
40454;DHT22;26160;51.858;4.398;2023-03-14T10:28:03;7.70;99.90
40454;DHT22;26160;51.858;4.398;2023-03-14T10:30:50;7.90;99.90
40454;DHT22;26160;51.858;4.398;2023-03-14T10:33:25;7.90;99.90
40454;DHT22;26160;51.858;4.398;2023-03-14T10:35:58;8.00;99.90
40454;DHT22;26160;51.858;4.398;2023-03-14T10:38:30;8.10;99.90
40454;DHT22;26160;51.858;4.398;2023-03-14T10:40:57;8.20;99.90
40454;DHT22;26160;51.858;4.398;2023-03-14T10:43:32;8.20;99.90
40454;DHT22;26160;51.858;4.398;2023-03-14T10:46:17;8.10;99.90
40454;DHT22;26160;51.858;4.398;2023-03-14T10:48:43;7.90;99.90
40454;DHT22;26160;51.858;4.398;2023-03-14T10:51:18;7.90;99.90
40454;DHT22;26160;51.858;4.398;2023-03-14T10:53:47;8.10;99.90
40454;DHT22;26160;51.858;4.398;2023-03-14T10:56:24;8.10;99.90
40454;DHT22;26160;51.858;4.398;2023-03-14T10:58:53;8.00;99.90
40454;DHT22;26160;51.858;4.398;2023-03-14T11:04:15;8.30;99.90
40454;DHT22;26160;51.858;4.398;2023-03-14T11:07:07;8.40;99.90
40454;DHT22;26160;51.858;4.398;2023-03-14T11:09:45;8.20;99.90
40454;DHT22;26160;51.858;4.398;2023-03-14T11:14:55;8.20;99.90
40454;DHT22;26160;51.858;4.398;2023-03-14T11:17:34;8.30;99.90
40454;DHT22;26160;51.858;4.398;2023-03-14T11:20:21;8.40;99.90
40454;DHT22;26160;51.858;4.398;2023-03-14T11:23:12;8.50;99.90
40454;DHT22;26160;51.858;4.398;2023-03-14T11:26:03;8.70;99.90
40454;DHT22;26160;51.858;4.398;2023-03-14T11:28:39;8.80;99.90
40454;DHT22;26160;51.858;4.398;2023-03-14T11:31:27;9.00;99.90
40454;DHT22;26160;51.858;4.398;2023-03-14T11:37:01;8.80;99.90
40454;DHT22;26160;51.858;4.398;2023-03-14T11:39:40;8.90;99.90
40454;DHT22;26160;51.858;4.398;2023-03-14T11:42:12;8.90;99.90
40454;DHT22;26160;51.858;4.398;2023-03-14T11:44:43;9.00;99.90
40454;DHT22;26160;51.858;4.398;2023-03-14T11:49:51;9.20;99.90
40454;DHT22;26160;51.858;4.398;2023-03-14T11:52:39;9.40;99.90
40454;DHT22;26160;51.858;4.398;2023-03-14T11:55:10;9.40;99.90
40454;DHT22;26160;51.858;4.398;2023-03-14T11:57:39;9.40;99.90
40454;DHT22;26160;51.858;4.398;2023-03-14T12:00:14;9.80;99.90
40454;DHT22;26160;51.858;4.398;2023-03-14T12:10:46;10.10;99.90
40454;DHT22;26160;51.858;4.398;2023-03-14T12:13:16;9.80;99.90
40454;DHT22;26160;51.858;4.398;2023-03-14T12:16:00;9.80;99.90
40454;DHT22;26160;51.858;4.398;2023-03-14T12:18:29;9.60;99.90
40454;DHT22;26160;51.858;4.398;2023-03-14T12:21:00;9.40;99.90
40454;DHT22;26160;51.858;4.398;2023-03-14T12:23:27;9.80;99.90
40454;DHT22;26160;51.858;4.398;2023-03-14T12:26:17;10.10;99.90
40454;DHT22;26160;51.858;4.398;2023-03-14T12:31:38;10.00;99.90
40454;DHT22;26160;51.858;4.398;2023-03-14T12:41:52;9.50;99.90
40454;DHT22;26160;51.858;4.398;2023-03-14T12:47:41;9.50;99.90
40454;DHT22;26160;51.858;4.398;2023-03-14T12:49:49;9.40;99.90
40454;DHT22;26160;51.858;4.398;2023-03-14T12:52:20;9.30;99.90
40454;DHT22;26160;51.858;4.398;2023-03-14T12:57:36;9.00;99.90
40454;DHT22;26160;51.858;4.398;2023-03-14T13:00:20;9.00;99.90
40454;DHT22;26160;51.858;4.398;2023-03-14T13:02:48;8.90;99.90
40454;DHT22;26160;51.858;4.398;2023-03-14T13:05:21;9.00;99.90
40454;DHT22;26160;51.858;4.398;2023-03-14T13:10:26;9.20;99.90
40454;DHT22;26160;51.858;4.398;2023-03-14T13:13:03;9.10;99.90
40454;DHT22;26160;51.858;4.398;2023-03-14T13:15:43;8.80;99.90
40454;DHT22;26160;51.858;4.398;2023-03-14T13:18:18;8.80;99.90
40454;DHT22;26160;51.858;4.398;2023-03-14T13:20:55;8.70;99.90
40454;DHT22;26160;51.858;4.398;2023-03-14T13:23:28;8.70;99.90
40454;DHT22;26160;51.858;4.398;2023-03-14T13:25:56;9.00;99.90
40454;DHT22;26160;51.858;4.398;2023-03-14T13:28:22;9.40;99.90
40454;DHT22;26160;51.858;4.398;2023-03-14T13:31:00;9.40;99.90
40454;DHT22;26160;51.858;4.398;2023-03-14T13:33:26;9.20;99.90
40454;DHT22;26160;51.858;4.398;2023-03-14T13:35:57;9.10;99.90
40454;DHT22;26160;51.858;4.398;2023-03-14T13:38:26;9.20;99.90
40454;DHT22;26160;51.858;4.398;2023-03-14T13:40:55;9.00;99.90
40454;DHT22;26160;51.858;4.398;2023-03-14T13:43:28;8.80;99.90
40454;DHT22;26160;51.858;4.398;2023-03-14T13:46:03;8.80;99.90
40454;DHT22;26160;51.858;4.398;2023-03-14T13:48:32;8.70;99.90
40454;DHT22;26160;51.858;4.398;2023-03-14T13:51:06;8.60;99.90
40454;DHT22;26160;51.858;4.398;2023-03-14T13:53:45;8.60;99.90
40454;DHT22;26160;51.858;4.398;2023-03-14T13:56:12;8.50;99.90
40454;DHT22;26160;51.858;4.398;2023-03-14T13:58:39;8.50;99.90
40454;DHT22;26160;51.858;4.398;2023-03-14T14:01:16;8.60;99.90
40454;DHT22;26160;51.858;4.398;2023-03-14T14:03:45;8.50;99.90
40454;DHT22;26160;51.858;4.398;2023-03-14T14:06:38;8.30;99.90
40454;DHT22;26160;51.858;4.398;2023-03-14T14:09:26;8.30;99.90
40454;DHT22;26160;51.858;4.398;2023-03-14T14:11:59;8.20;99.90
40454;DHT22;26160;51.858;4.398;2023-03-14T14:14:39;8.30;99.90
40454;DHT22;26160;51.858;4.398;2023-03-14T14:17:08;8.30;99.90
40454;DHT22;26160;51.858;4.398;2023-03-14T14:19:36;8.40;99.90
40454;DHT22;26160;51.858;4.398;2023-03-14T14:22:03;8.30;99.90
40454;DHT22;26160;51.858;4.398;2023-03-14T14:24:31;8.30;99.90
40454;DHT22;26160;51.858;4.398;2023-03-14T14:27:08;8.30;99.90
40454;DHT22;26160;51.858;4.398;2023-03-14T14:29:35;8.40;99.90
40454;DHT22;26160;51.858;4.398;2023-03-14T14:34:41;8.30;99.90
40454;DHT22;26160;51.858;4.398;2023-03-14T14:37:33;8.20;99.90
40454;DHT22;26160;51.858;4.398;2023-03-14T14:40:09;8.20;99.90
40454;DHT22;26160;51.858;4.398;2023-03-14T14:42:40;8.10;99.90
40454;DHT22;26160;51.858;4.398;2023-03-14T14:45:14;8.00;99.90
40454;DHT22;26160;51.858;4.398;2023-03-14T14:50:37;8.20;99.90
40454;DHT22;26160;51.858;4.398;2023-03-14T14:55:50;8.10;99.90
40454;DHT22;26160;51.858;4.398;2023-03-14T14:58:39;8.20;99.90
40454;DHT22;26160;51.858;4.398;2023-03-14T15:01:17;8.20;99.90
40454;DHT22;26160;51.858;4.398;2023-03-14T15:03:46;8.00;99.90
40454;DHT22;26160;51.858;4.398;2023-03-14T15:06:16;8.20;99.90
40454;DHT22;26160;51.858;4.398;2023-03-14T15:08:43;8.20;99.90
40454;DHT22;26160;51.858;4.398;2023-03-14T15:11:21;8.10;99.90
40454;DHT22;26160;51.858;4.398;2023-03-14T15:13:51;8.20;99.90
40454;DHT22;26160;51.858;4.398;2023-03-14T15:16:25;8.30;99.90
40454;DHT22;26160;51.858;4.398;2023-03-14T15:18:55;8.20;99.90
40454;DHT22;26160;51.858;4.398;2023-03-14T15:21:22;8.20;99.90
40454;DHT22;26160;51.858;4.398;2023-03-14T15:23:49;8.00;99.90
40454;DHT22;26160;51.858;4.398;2023-03-14T15:26:18;7.80;99.90
40454;DHT22;26160;51.858;4.398;2023-03-14T15:28:45;7.80;99.90
40454;DHT22;26160;51.858;4.398;2023-03-14T15:31:13;7.70;99.90
40454;DHT22;26160;51.858;4.398;2023-03-14T15:33:39;7.70;99.90
40454;DHT22;26160;51.858;4.398;2023-03-14T15:36:28;7.80;99.90
40454;DHT22;26160;51.858;4.398;2023-03-14T15:38:55;7.70;99.90
40454;DHT22;26160;51.858;4.398;2023-03-14T15:41:22;7.90;99.90
40454;DHT22;26160;51.858;4.398;2023-03-14T15:43:49;8.00;99.90
40454;DHT22;26160;51.858;4.398;2023-03-14T15:46:16;8.10;99.90
40454;DHT22;26160;51.858;4.398;2023-03-14T15:48:44;8.10;99.90
40454;DHT22;26160;51.858;4.398;2023-03-14T15:51:10;8.10;99.90
40454;DHT22;26160;51.858;4.398;2023-03-14T15:53:37;7.90;99.90
40454;DHT22;26160;51.858;4.398;2023-03-14T15:56:04;7.80;99.90
40454;DHT22;26160;51.858;4.398;2023-03-14T15:58:31;7.90;99.90
40454;DHT22;26160;51.858;4.398;2023-03-14T16:01:01;8.10;99.90
40454;DHT22;26160;51.858;4.398;2023-03-14T16:03:28;7.90;99.90
40454;DHT22;26160;51.858;4.398;2023-03-14T16:05:55;7.80;99.90
40454;DHT22;26160;51.858;4.398;2023-03-14T16:08:23;7.70;99.90
40454;DHT22;26160;51.858;4.398;2023-03-14T16:10:51;7.60;99.90
40454;DHT22;26160;51.858;4.398;2023-03-14T16:13:18;7.40;99.90
40454;DHT22;26160;51.858;4.398;2023-03-14T16:15:53;7.40;99.90
40454;DHT22;26160;51.858;4.398;2023-03-14T16:18:19;7.50;99.90
40454;DHT22;26160;51.858;4.398;2023-03-14T16:20:52;7.50;99.90
40454;DHT22;26160;51.858;4.398;2023-03-14T16:23:18;7.50;99.90
40454;DHT22;26160;51.858;4.398;2023-03-14T16:25:45;7.50;99.90
40454;DHT22;26160;51.858;4.398;2023-03-14T16:28:11;7.50;99.90
40454;DHT22;26160;51.858;4.398;2023-03-14T16:30:37;7.60;99.90
40454;DHT22;26160;51.858;4.398;2023-03-14T16:33:03;7.70;99.90
40454;DHT22;26160;51.858;4.398;2023-03-14T16:35:38;7.70;99.90
40454;DHT22;26160;51.858;4.398;2023-03-14T16:38:05;7.70;99.90
40454;DHT22;26160;51.858;4.398;2023-03-14T16:40:31;7.70;99.90
40454;DHT22;26160;51.858;4.398;2023-03-14T16:42:58;7.40;99.90
40454;DHT22;26160;51.858;4.398;2023-03-14T16:45:24;7.40;99.90
40454;DHT22;26160;51.858;4.398;2023-03-14T16:47:50;7.30;99.90
40454;DHT22;26160;51.858;4.398;2023-03-14T16:50:16;7.40;99.90
40454;DHT22;26160;51.858;4.398;2023-03-14T16:52:43;7.40;99.90
40454;DHT22;26160;51.858;4.398;2023-03-14T16:55:14;7.30;99.90
40454;DHT22;26160;51.858;4.398;2023-03-14T16:57:40;7.30;99.90
40454;DHT22;26160;51.858;4.398;2023-03-14T17:00:06;7.20;99.90
40454;DHT22;26160;51.858;4.398;2023-03-14T17:02:33;7.20;99.90
40454;DHT22;26160;51.858;4.398;2023-03-14T17:04:59;7.10;99.90
40454;DHT22;26160;51.858;4.398;2023-03-14T17:07:25;7.00;99.90
40454;DHT22;26160;51.858;4.398;2023-03-14T17:09:51;6.90;99.90
40454;DHT22;26160;51.858;4.398;2023-03-14T17:12:18;6.90;99.90
40454;DHT22;26160;51.858;4.398;2023-03-14T17:14:45;6.70;99.90